Time;durP1;ratioP1;P1;durP2;ratioP2;P2;SDS_P1;SDS_P2;PMS_P1;PMS_P2;Temp;Humidity;BMP_temperature;BMP_pressure;BME280_temperature;BME280_humidity;BME280_pressure;Samples;Min_cycle;Max_cycle;Signal;HPM_P1;HPM_P2
2021/05/10 00:02:09;;;;;;;6.78;3.50;;;;;;;16.44;48.25;100013.31;5075627;28;20495;-71
2021/05/10 00:04:34;;;;;;;5.10;4.00;;;;;;;16.39;48.81;100047.13;5076020;28;20059;-71
2021/05/10 00:06:59;;;;;;;7.22;4.65;;;;;;;15.52;50.94;100068.56;5067035;28;20029;-70
2021/05/10 00:09:25;;;;;;;8.23;4.97;;;;;;;15.70;50.22;100055.81;5064191;28;20101;-71
2021/05/10 00:11:50;;;;;;;4.30;3.90;;;;;;;16.15;49.32;100063.03;5062186;28;20459;-71
2021/05/10 00:14:26;;;;;;;6.55;4.55;;;;;;;16.31;48.87;100067.97;5065173;28;20041;-71
2021/05/10 00:16:51;;;;;;;5.43;4.38;;;;;;;16.36;48.34;100071.13;5065714;28;20035;-71
2021/05/10 00:19:17;;;;;;;6.93;4.10;;;;;;;16.46;48.35;100071.22;5065933;28;20553;-71
2021/05/10 00:21:42;;;;;;;5.35;4.78;;;;;;;16.40;48.27;100067.28;5063150;28;20029;-69
2021/05/10 00:24:08;;;;;;;5.72;4.22;;;;;;;16.48;48.15;100071.94;5061658;28;20028;-69
2021/05/10 00:26:33;;;;;;;5.13;3.83;;;;;;;16.42;48.16;100058.28;5063084;28;20041;-69
2021/05/10 00:28:59;;;;;;;5.50;4.10;;;;;;;16.55;47.90;100060.78;5064035;28;20028;-69
2021/05/10 00:31:24;;;;;;;6.95;5.30;;;;;;;16.47;48.13;100059.75;5062715;28;20031;-69
2021/05/10 00:33:49;;;;;;;6.97;5.07;;;;;;;16.26;48.67;100063.06;5061480;28;20506;-70
2021/05/10 00:36:15;;;;;;;7.70;5.03;;;;;;;16.31;48.50;100060.94;5062217;28;20044;-69
2021/05/10 00:38:40;;;;;;;8.57;5.57;;;;;;;16.39;48.21;100047.13;5063342;28;20035;-65
2021/05/10 00:41:06;;;;;;;7.70;5.03;;;;;;;16.30;48.22;100043.41;5065651;28;20396;-69
2021/05/10 00:43:31;;;;;;;6.53;5.05;;;;;;;16.32;48.12;100036.22;5063873;28;20483;-69
2021/05/10 00:45:59;;;;;;;7.68;5.53;;;;;;;16.33;47.89;100037.91;5065460;28;20037;-72
2021/05/10 00:48:24;;;;;;;8.20;5.45;;;;;;;16.15;48.01;100041.94;5064895;28;20486;-73
2021/05/10 00:50:50;;;;;;;7.75;6.40;;;;;;;16.34;47.56;100047.50;5064605;28;20039;-67
2021/05/10 00:53:15;;;;;;;7.55;6.50;;;;;;;16.30;47.64;100046.03;5061033;28;20035;-66
2021/05/10 00:55:41;;;;;;;11.70;6.68;;;;;;;16.25;47.58;100048.22;5067348;28;20120;-66
2021/05/10 00:58:07;;;;;;;10.98;7.05;;;;;;;16.06;48.30;100063.75;5061033;28;20597;-66
2021/05/10 01:00:37;;;;;;;15.07;7.75;;;;;;;15.97;48.04;100074.03;5065098;28;20043;-67
2021/05/10 01:03:04;;;;;;;9.70;7.40;;;;;;;16.10;47.95;100076.56;5062407;28;20105;-66
2021/05/10 01:05:29;;;;;;;8.75;6.47;;;;;;;16.07;47.98;100070.72;5062776;28;20113;-66
2021/05/10 01:07:55;;;;;;;11.43;8.20;;;;;;;15.86;48.55;100073.13;5063915;28;20489;-69
2021/05/10 01:10:24;;;;;;;9.63;7.50;;;;;;;15.76;49.27;100080.88;5062321;28;20032;-66
2021/05/10 01:12:50;;;;;;;15.02;8.02;;;;;;;15.80;48.68;100077.91;5056458;28;20077;-68
2021/05/10 01:15:17;;;;;;;18.30;8.43;;;;;;;15.81;48.86;100081.38;5064875;28;20033;-66
2021/05/10 01:17:44;;;;;;;10.55;7.38;;;;;;;15.84;48.60;100085.56;5059048;28;20097;-67
2021/05/10 01:20:13;;;;;;;9.70;7.78;;;;;;;15.70;49.21;100076.06;5065655;28;20032;-66
2021/05/10 01:22:53;;;;;;;10.23;8.10;;;;;;;15.64;49.06;100069.47;5060894;28;20128;-66
2021/05/10 01:25:27;;;;;;;11.13;8.00;;;;;;;15.71;48.74;100078.59;5063151;28;20036;-64
2021/05/10 01:27:54;;;;;;;15.73;9.00;;;;;;;15.64;48.84;100066.84;5061511;28;20401;-67
2021/05/10 01:30:33;;;;;;;14.40;9.13;;;;;;;15.38;49.90;100052.97;5065841;28;20066;-67
2021/05/10 01:33:00;;;;;;;13.68;8.57;;;;;;;15.41;49.49;100057.97;5060000;28;20032;-66
2021/05/10 01:35:29;;;;;;;12.30;9.07;;;;;;;15.34;49.42;100062.03;5062297;28;20076;-65
2021/05/10 01:37:55;;;;;;;13.55;8.55;;;;;;;15.24;49.90;100071.53;5059724;28;20112;-66
2021/05/10 01:40:22;;;;;;;14.75;8.98;;;;;;;14.97;50.53;100086.56;5061302;28;20025;-65
2021/05/10 01:42:47;;;;;;;14.30;8.82;;;;;;;15.16;50.01;100069.44;5064686;28;20396;-66
2021/05/10 01:45:15;;;;;;;14.00;9.27;;;;;;;15.03;50.37;100060.75;5063654;28;20030;-66
2021/05/10 01:47:41;;;;;;;18.67;10.48;;;;;;;15.02;50.33;100065.16;5061128;28;20143;-65
2021/05/10 01:50:12;;;;;;;15.93;9.88;;;;;;;15.08;49.93;100064.75;5065080;28;20123;-66
2021/05/10 01:52:38;;;;;;;15.35;9.43;;;;;;;14.99;50.27;100075.91;5062354;28;20052;-66
2021/05/10 01:55:05;;;;;;;13.10;8.43;;;;;;;15.10;49.73;100078.63;5064296;28;20032;-66
2021/05/10 01:57:31;;;;;;;12.73;9.00;;;;;;;14.93;50.25;100071.09;5059196;28;20448;-65
2021/05/10 01:59:56;;;;;;;15.32;9.18;;;;;;;14.91;50.41;100067.72;5061519;28;20039;-67
2021/05/10 02:02:22;;;;;;;13.98;9.35;;;;;;;14.93;50.30;100056.16;5061280;28;20558;-68
2021/05/10 02:05:08;;;;;;;14.55;9.52;;;;;;;14.95;50.36;100058.69;5064032;28;20555;-64
2021/05/10 02:07:36;;;;;;;13.82;8.60;;;;;;;14.92;50.31;100062.34;5061668;28;20073;-65
2021/05/10 02:10:04;;;;;;;15.82;9.77;;;;;;;14.88;50.21;100057.41;5076779;28;20056;-66
2021/05/10 02:12:29;;;;;;;14.85;9.98;;;;;;;14.72;50.28;100061.16;5061649;28;20359;-65
2021/05/10 02:14:54;;;;;;;11.43;9.32;;;;;;;14.58;50.86;100058.63;5086958;28;20037;-64
2021/05/10 02:17:20;;;;;;;14.65;8.68;;;;;;;14.38;51.17;100056.53;5083172;28;20047;-66
2021/05/10 02:19:46;;;;;;;14.15;9.57;;;;;;;14.24;51.87;100047.78;5081654;28;20259;-67
2021/05/10 02:22:11;;;;;;;17.67;9.65;;;;;;;14.17;52.12;100054.41;5064324;28;20039;-67
2021/05/10 02:24:37;;;;;;;16.95;10.60;;;;;;;14.11;52.87;100042.53;5061788;28;20173;-67
2021/05/10 02:27:06;;;;;;;20.23;11.73;;;;;;;14.23;52.77;100040.00;5058777;28;20480;-67
2021/05/10 02:29:32;;;;;;;17.20;10.55;;;;;;;14.44;52.30;100038.56;5061283;28;20044;-68
2021/05/10 02:31:58;;;;;;;17.60;11.10;;;;;;;14.52;51.44;100031.00;5061500;28;20119;-68
2021/05/10 02:34:23;;;;;;;13.55;9.75;;;;;;;14.47;51.50;100033.06;5059725;28;20511;-68
2021/05/10 02:36:50;;;;;;;12.57;9.77;;;;;;;14.47;51.38;100032.25;5062548;28;20513;-69
2021/05/10 02:39:15;;;;;;;13.25;9.73;;;;;;;14.47;50.72;100027.00;5059904;28;21009;-71
2021/05/10 02:41:41;;;;;;;14.90;8.90;;;;;;;14.39;51.23;100029.28;5064512;28;20036;-69
2021/05/10 02:44:07;;;;;;;13.55;8.85;;;;;;;14.40;51.13;100030.97;5064105;28;20085;-70
2021/05/10 02:46:33;;;;;;;16.65;9.02;;;;;;;14.26;51.01;100030.13;5076088;22;20023;-69
2021/05/10 02:48:58;;;;;;;13.60;8.80;;;;;;;14.15;51.25;100030.03;5024820;28;20455;-69
2021/05/10 02:51:24;;;;;;;13.48;8.80;;;;;;;14.05;51.74;100031.59;5008155;28;20037;-69
2021/05/10 02:53:49;;;;;;;13.82;8.85;;;;;;;13.93;51.71;100031.47;5016445;28;20674;-69
2021/05/10 02:56:15;;;;;;;17.33;10.07;;;;;;;13.86;51.94;100026.75;5002715;28;20106;-69
2021/05/10 02:58:40;;;;;;;15.30;10.55;;;;;;;13.78;52.42;100027.25;5003870;28;20034;-69
2021/05/10 03:01:06;;;;;;;14.38;9.10;;;;;;;13.74;52.17;100028.41;5020606;28;20442;-69
2021/05/10 03:03:31;;;;;;;13.93;9.95;;;;;;;13.69;52.36;100022.63;5004512;28;20045;-69
2021/05/10 03:05:57;;;;;;;17.45;11.40;;;;;;;13.67;52.67;100022.75;5004725;28;20109;-69
2021/05/10 03:08:22;;;;;;;18.23;11.32;;;;;;;13.69;52.82;100025.25;5005297;28;20026;-69
2021/05/10 03:10:48;;;;;;;20.10;14.05;;;;;;;13.73;53.24;100017.06;5004278;28;20696;-70
2021/05/10 03:13:13;;;;;;;18.98;13.07;;;;;;;13.82;53.31;100018.22;5003749;28;20041;-69
2021/05/10 03:15:39;;;;;;;19.95;14.02;;;;;;;13.77;53.65;100030.00;5004192;28;20050;-69
2021/05/10 03:18:04;;;;;;;26.30;14.00;;;;;;;14.16;52.29;100039.59;5002405;28;20049;-69
2021/05/10 03:20:30;;;;;;;21.45;14.15;;;;;;;14.21;52.29;100039.25;5005072;28;20026;-68
2021/05/10 03:22:56;;;;;;;20.48;13.85;;;;;;;14.22;52.02;100038.34;5003923;28;20156;-69
2021/05/10 03:25:23;;;;;;;21.73;14.18;;;;;;;14.27;52.01;100039.69;5005328;28;20145;-69
2021/05/10 03:27:50;;;;;;;23.40;15.45;;;;;;;14.33;51.84;100031.38;5004202;28;20025;-69
2021/05/10 03:30:20;;;;;;;21.85;14.15;;;;;;;14.34;51.74;100032.22;5004918;28;20436;-69
2021/05/10 03:32:46;;;;;;;19.13;13.63;;;;;;;14.43;51.50;100036.03;5003381;28;20037;-69
2021/05/10 03:35:13;;;;;;;29.08;15.77;;;;;;;14.46;51.05;100041.94;5003055;28;20475;-69
2021/05/10 03:37:40;;;;;;;21.50;14.63;;;;;;;14.40;51.25;100044.09;5006578;28;20033;-69
2021/05/10 03:40:11;;;;;;;20.92;14.45;;;;;;;14.33;51.19;100041.91;5004582;28;20403;-71
2021/05/10 03:42:38;;;;;;;23.48;14.77;;;;;;;14.02;52.28;100040.53;5006985;28;20034;-68
2021/05/10 03:45:05;;;;;;;20.00;14.05;;;;;;;14.20;51.70;100032.34;5007768;28;20018;-71
2021/05/10 03:47:39;;;;;;;23.45;15.85;;;;;;;14.05;52.29;100027.16;5012958;28;20042;-71
2021/05/10 03:50:09;;;;;;;23.80;14.27;;;;;;;14.09;52.25;100025.19;5009380;28;20808;-70
2021/05/10 03:52:34;;;;;;;26.50;14.90;;;;;;;14.22;51.89;100012.06;4990061;28;20030;-71
2021/05/10 03:55:00;;;;;;;24.75;14.63;;;;;;;14.10;52.22;100024.25;5006802;28;20033;-71
2021/05/10 03:57:25;;;;;;;21.98;14.38;;;;;;;14.31;51.74;100017.50;5005978;28;20070;-70
2021/05/10 03:59:51;;;;;;;21.80;15.25;;;;;;;14.19;52.24;100005.22;5008028;28;20258;-70
2021/05/10 04:02:17;;;;;;;24.38;13.55;;;;;;;14.24;52.07;99995.22;5006811;28;20091;-71
2021/05/10 04:04:47;;;;;;;27.15;16.45;;;;;;;14.15;52.38;100001.13;5005334;28;20040;-70
2021/05/10 04:07:23;;;;;;;24.60;14.63;;;;;;;14.25;52.16;99990.81;5007440;28;20507;-70
2021/05/10 04:15:42;;;;;;;20.48;14.32;;;;;;;14.72;50.70;99995.41;5005144;28;20623;-70
2021/05/10 04:18:07;;;;;;;18.65;13.63;;;;;;;14.84;50.46;99984.94;5006373;28;20034;-71
2021/05/10 04:20:32;;;;;;;18.08;13.48;;;;;;;15.02;49.93;99986.22;5007023;28;20088;-71
2021/05/10 04:22:58;;;;;;;18.38;13.85;;;;;;;14.95;49.62;99990.25;5004569;28;20034;-70
2021/05/10 04:25:23;;;;;;;21.75;13.88;;;;;;;14.82;50.43;99985.03;5007380;28;20045;-70
2021/05/10 04:27:49;;;;;;;20.13;12.85;;;;;;;14.94;49.88;99975.41;5006766;28;20034;-71
2021/05/10 04:30:15;;;;;;;19.42;12.48;;;;;;;15.02;49.75;99980.13;5006890;28;20034;-71
2021/05/10 04:32:41;;;;;;;21.95;13.95;;;;;;;14.96;49.71;99969.09;5021447;28;20034;-71
2021/05/10 04:35:07;;;;;;;18.05;11.93;;;;;;;15.02;49.79;99970.44;5006641;28;20041;-71
2021/05/10 04:37:33;;;;;;;21.48;13.57;;;;;;;15.08;49.68;99950.72;5006471;28;20030;-71
2021/05/10 04:39:59;;;;;;;18.58;13.18;;;;;;;15.16;49.37;99954.47;5006469;28;20120;-71
2021/05/10 04:42:24;;;;;;;16.75;12.32;;;;;;;15.26;49.45;99940.66;5007324;28;20117;-71
2021/05/10 04:44:50;;;;;;;23.48;13.48;;;;;;;15.22;49.45;99949.75;5006771;28;20579;-71
2021/05/10 04:47:16;;;;;;;19.63;12.07;;;;;;;15.30;49.36;99952.63;5006347;28;20395;-71
2021/05/10 04:49:41;;;;;;;16.60;12.18;;;;;;;15.36;49.06;99946.91;5007878;28;20030;-71
2021/05/10 04:52:07;;;;;;;17.00;11.43;;;;;;;15.53;48.51;99949.13;5005375;28;20066;-69
2021/05/10 04:54:32;;;;;;;16.45;11.48;;;;;;;15.57;48.27;99947.06;5005496;28;20687;-69
2021/05/10 04:56:58;;;;;;;15.00;11.27;;;;;;;15.58;48.04;99957.50;5020678;28;20078;-68
2021/05/10 04:59:23;;;;;;;17.63;10.98;;;;;;;15.55;47.88;99956.88;5005605;28;20038;-69
2021/05/10 05:01:49;;;;;;;16.52;10.40;;;;;;;15.63;47.62;99958.97;5004358;28;20040;-70
2021/05/10 05:04:16;;;;;;;12.70;9.90;;;;;;;15.60;47.86;99960.03;5006714;28;20125;-69
2021/05/10 05:06:42;;;;;;;15.55;10.45;;;;;;;15.64;47.61;99955.34;5006224;28;20113;-69
2021/05/10 05:09:07;;;;;;;14.10;9.32;;;;;;;15.65;47.72;99954.41;5021180;28;20052;-69
2021/05/10 05:11:33;;;;;;;15.18;9.38;;;;;;;15.52;47.46;99947.44;5005386;28;20484;-68
2021/05/10 05:13:58;;;;;;;14.88;8.55;;;;;;;15.69;47.02;99940.06;5006354;28;20037;-69
2021/05/10 05:16:24;;;;;;;9.93;7.20;;;;;;;15.79;46.31;99933.09;5006471;28;20037;-69
2021/05/10 05:18:49;;;;;;;11.25;7.15;;;;;;;15.78;45.98;99937.53;5005474;28;20042;-69
2021/05/10 05:21:14;;;;;;;8.10;6.13;;;;;;;15.84;45.92;99946.78;5021809;28;20029;-68
2021/05/10 05:23:40;;;;;;;10.70;5.88;;;;;;;15.96;45.25;99951.09;5004023;28;20044;-69
2021/05/10 05:26:05;;;;;;;11.73;4.20;;;;;;;16.28;44.22;99955.69;5004460;28;20033;-69
2021/05/10 05:28:32;;;;;;;8.63;3.47;;;;;;;16.59;42.91;99950.59;5003447;28;20523;-69
2021/05/10 05:31:00;;;;;;;5.43;3.35;;;;;;;17.17;41.27;99952.97;5006591;28;20030;-68
2021/05/10 05:33:26;;;;;;;5.22;2.80;;;;;;;17.55;39.89;99956.91;5003309;28;20120;-69
2021/05/10 05:35:53;;;;;;;4.05;2.50;;;;;;;18.17;38.54;99950.69;5020785;28;20045;-69
2021/05/10 05:38:19;;;;;;;4.28;2.08;;;;;;;18.94;36.90;99949.25;5004646;28;20359;-69
2021/05/10 05:40:46;;;;;;;6.28;2.38;;;;;;;19.43;35.46;99954.53;5006460;28;20030;-70
2021/05/10 05:43:12;;;;;;;2.92;1.73;;;;;;;19.91;34.26;99945.69;5004232;28;20116;-69
2021/05/10 05:45:42;;;;;;;4.15;1.17;;;;;;;20.48;33.38;99956.19;5020887;28;20022;-69
2021/05/10 05:48:10;;;;;;;2.05;1.40;;;;;;;21.05;32.42;99948.03;5005345;28;20242;-70
2021/05/10 05:50:36;;;;;;;4.53;1.35;;;;;;;20.46;32.75;99951.06;5005796;28;20029;-69
2021/05/10 05:53:03;;;;;;;1.63;1.00;;;;;;;20.58;32.87;99956.97;5019744;28;20040;-69
2021/05/10 05:55:29;;;;;;;4.30;1.02;;;;;;;21.33;31.30;99944.28;5020120;28;20025;-69
2021/05/10 05:57:57;;;;;;;2.05;1.52;;;;;;;22.03;31.19;99940.75;5005593;28;20033;-69
2021/05/10 06:00:23;;;;;;;1.40;0.60;;;;;;;22.61;29.17;99946.31;5005598;28;20502;-70
2021/05/10 06:02:49;;;;;;;3.17;0.82;;;;;;;22.49;30.11;99951.91;5019811;28;20030;-69
2021/05/10 06:05:15;;;;;;;3.60;0.60;;;;;;;23.12;28.70;99952.38;5004576;28;20399;-70
2021/05/10 06:07:42;;;;;;;1.55;0.70;;;;;;;22.90;28.04;99954.72;5005049;28;20041;-70
2021/05/10 06:10:12;;;;;;;6.65;0.65;;;;;;;22.63;28.29;99960.28;5004190;28;20064;-69
2021/05/10 06:12:38;;;;;;;2.33;0.60;;;;;;;22.48;28.30;99957.41;5006392;28;20030;-70
2021/05/10 06:15:06;;;;;;;3.47;0.40;;;;;;;22.43;28.20;99965.91;5006553;28;20128;-70
2021/05/10 06:17:32;;;;;;;8.00;0.63;;;;;;;24.40;25.71;99964.00;5007486;28;20466;-69
2021/05/10 06:19:58;;;;;;;1.13;0.43;;;;;;;23.16;26.89;99956.38;5002951;28;20057;-69
2021/05/10 06:22:24;;;;;;;2.40;0.40;;;;;;;22.04;28.90;99949.56;5006493;28;20112;-70
2021/05/10 06:24:49;;;;;;;3.90;0.50;;;;;;;21.39;29.81;99955.28;5002896;28;20788;-70
2021/05/10 06:27:15;;;;;;;2.42;0.55;;;;;;;21.37;30.54;99963.38;4988234;28;20041;-70
2021/05/10 06:29:40;;;;;;;0.85;0.30;;;;;;;21.06;30.85;99976.25;5003522;28;20467;-69
2021/05/10 06:32:06;;;;;;;7.22;0.60;;;;;;;20.79;31.15;99964.66;5004341;28;20056;-69
2021/05/10 06:34:32;;;;;;;0.65;0.30;;;;;;;22.21;29.00;99959.31;5006018;28;20037;-70
2021/05/10 06:36:57;;;;;;;0.70;0.30;;;;;;;21.41;29.64;99961.28;5017686;28;20061;-70
2021/05/10 06:39:24;;;;;;;0.68;0.30;;;;;;;21.07;30.63;99960.16;5020954;28;20108;-69
2021/05/10 06:41:50;;;;;;;1.80;1.02;;;;;;;20.40;31.43;99967.56;5005210;28;20739;-69
2021/05/10 06:44:15;;;;;;;1.63;0.30;;;;;;;19.92;31.91;99973.84;5003548;28;20113;-69
2021/05/10 06:46:40;;;;;;;2.72;0.57;;;;;;;19.37;33.26;99977.16;5002992;28;20030;-69
2021/05/10 06:49:06;;;;;;;3.83;0.43;;;;;;;19.15;33.25;99970.31;5019667;28;20079;-69
2021/05/10 06:51:31;;;;;;;0.70;0.50;;;;;;;18.81;34.04;99988.34;5003146;28;20543;-69
2021/05/10 06:53:57;;;;;;;2.60;0.30;;;;;;;18.99;33.80;99980.59;5004670;28;20555;-69
2021/05/10 06:56:23;;;;;;;3.63;0.63;;;;;;;18.98;33.27;99978.94;5002451;28;20041;-68
2021/05/10 06:58:49;;;;;;;2.45;1.27;;;;;;;19.35;32.87;99986.22;5005082;28;20037;-68
2021/05/10 07:01:17;;;;;;;5.18;0.40;;;;;;;19.61;32.51;99989.97;5003475;28;20044;-69
2021/05/10 07:03:43;;;;;;;3.15;0.40;;;;;;;19.80;32.82;99991.75;4986110;28;20029;-69
2021/05/10 07:06:08;;;;;;;1.10;0.30;;;;;;;21.42;29.69;99995.66;5003840;28;20033;-69
2021/05/10 07:08:34;;;;;;;2.85;0.52;;;;;;;22.07;29.10;99997.97;5001158;28;20347;-69
2021/05/10 07:10:59;;;;;;;1.38;0.40;;;;;;;23.77;26.57;100003.06;5014033;28;20125;-70
2021/05/10 07:13:25;;;;;;;2.05;0.45;;;;;;;23.16;26.93;99997.22;5001226;28;20046;-69
2021/05/10 07:15:51;;;;;;;1.27;0.43;;;;;;;21.79;29.11;99997.28;5001030;28;20037;-70
2021/05/10 07:18:16;;;;;;;3.25;0.20;;;;;;;21.06;29.72;100005.47;5004807;28;20128;-70
2021/05/10 07:20:46;;;;;;;1.13;0.57;;;;;;;21.04;30.06;99994.16;5020696;28;20595;-70
2021/05/10 07:23:13;;;;;;;1.63;0.20;;;;;;;21.20;29.76;100001.44;5003010;28;20072;-69
2021/05/10 07:25:49;;;;;;;1.92;0.30;;;;;;;21.15;29.83;100009.88;5007458;28;20717;-69
2021/05/10 07:28:19;;;;;;;1.05;0.30;;;;;;;20.97;30.46;100001.06;4987760;28;20037;-69
2021/05/10 07:30:46;;;;;;;0.82;0.68;;;;;;;20.52;30.93;100000.03;5008083;28;20722;-69
2021/05/10 07:33:12;;;;;;;0.82;0.25;;;;;;;20.37;31.47;100005.00;5007374;28;20034;-69
2021/05/10 07:35:38;;;;;;;0.35;0.20;;;;;;;21.42;29.54;100005.44;5005925;28;20038;-69
2021/05/10 07:38:04;;;;;;;3.13;0.38;;;;;;;22.31;27.88;100007.09;5004980;28;20084;-70
2021/05/10 07:40:31;;;;;;;4.05;0.40;;;;;;;21.49;28.64;100019.81;5002022;28;20036;-70
2021/05/10 07:42:57;;;;;;;5.72;0.60;;;;;;;22.48;27.59;100016.81;5004900;28;20026;-69
2021/05/10 07:45:23;;;;;;;3.85;0.30;;;;;;;22.33;28.05;100003.28;5020133;28;20036;-70
2021/05/10 07:47:52;;;;;;;3.80;0.40;;;;;;;21.34;28.98;100004.41;5003739;28;20037;-69
2021/05/10 07:50:18;;;;;;;1.35;0.32;;;;;;;20.63;29.74;100006.97;5004340;28;21085;-69
2021/05/10 07:52:43;;;;;;;2.40;0.40;;;;;;;20.30;30.48;100006.56;5006725;28;20045;-70
2021/05/10 07:55:09;;;;;;;1.98;0.32;;;;;;;20.61;30.88;100001.81;5021138;28;20042;-70
2021/05/10 07:57:35;;;;;;;0.52;0.20;;;;;;;20.12;31.50;100006.47;5004694;28;20757;-69
2021/05/10 08:00:04;;;;;;;1.73;0.30;;;;;;;20.84;30.50;100009.34;5005573;28;20063;-69
2021/05/10 08:02:31;;;;;;;3.15;0.25;;;;;;;21.03;30.53;100017.22;5004069;28;20041;-69
2021/05/10 08:04:57;;;;;;;3.10;0.30;;;;;;;21.04;30.04;100023.38;5004363;28;20049;-69
2021/05/10 08:07:23;;;;;;;2.65;1.25;;;;;;;20.77;30.65;100026.88;5004006;28;20462;-69
2021/05/10 08:09:48;;;;;;;2.42;0.50;;;;;;;20.66;31.07;100014.63;5020727;28;20044;-70
2021/05/10 08:12:15;;;;;;;4.78;0.40;;;;;;;21.39;29.76;100021.72;5004581;28;20046;-70
2021/05/10 08:14:41;;;;;;;3.35;0.40;;;;;;;21.08;29.91;100014.94;5019459;28;20435;-69
2021/05/10 08:17:07;;;;;;;1.25;0.30;;;;;;;21.92;28.96;100012.84;5003001;28;23323;-70
2021/05/10 08:19:33;;;;;;;1.05;0.47;;;;;;;23.47;27.17;100011.75;5003586;28;20030;-70
2021/05/10 08:22:00;;;;;;;0.95;0.30;;;;;;;26.12;24.07;100017.25;5006119;28;20029;-69
2021/05/10 08:24:26;;;;;;;4.05;0.68;;;;;;;25.72;24.06;100027.34;5003813;28;20014;-70
2021/05/10 08:26:51;;;;;;;4.25;0.43;;;;;;;25.45;24.29;100013.50;5003062;28;20042;-69
2021/05/10 08:29:17;;;;;;;1.00;0.20;;;;;;;25.88;24.10;100025.31;5003921;28;20037;-69
2021/05/10 08:31:46;;;;;;;1.45;0.20;;;;;;;27.61;22.11;100023.91;5002072;28;20507;-70
2021/05/10 08:34:13;;;;;;;4.53;0.22;;;;;;;26.81;22.17;100027.66;5004401;28;20026;-70
2021/05/10 08:36:38;;;;;;;5.30;0.57;;;;;;;27.65;22.18;100029.72;5003358;28;20809;-70
2021/05/10 08:39:08;;;;;;;0.40;0.20;;;;;;;29.39;20.39;100045.63;5003075;28;20185;-72
2021/05/10 08:41:37;;;;;;;1.73;0.30;;;;;;;28.94;20.00;100053.41;5002510;28;20045;-70
2021/05/10 08:44:09;;;;;;;1.13;0.20;;;;;;;28.04;21.96;100047.16;5003808;28;20094;-70
2021/05/10 08:46:35;;;;;;;;;;;;;;;27.60;22.54;100054.44;5021620;28;20033;-70
2021/05/10 08:49:00;;;;;;;1.20;0.50;;;;;;;24.82;25.44;100060.84;5018137;28;19918;-69
2021/05/10 08:51:27;;;;;;;2.38;0.52;;;;;;;25.26;25.12;100062.94;5023398;28;20037;-69
2021/05/10 08:53:52;;;;;;;4.20;0.52;;;;;;;24.17;26.73;100076.06;5004647;28;20089;-70
2021/05/10 08:56:18;;;;;;;3.05;0.40;;;;;;;23.98;27.72;100079.94;5018329;28;20102;-70
2021/05/10 08:58:45;;;;;;;3.88;0.30;;;;;;;20.82;30.83;100104.25;5005935;28;20029;-70
2021/05/10 09:01:12;;;;;;;3.83;0.80;;;;;;;18.92;33.76;100122.47;5004476;28;20038;-70
2021/05/10 09:03:44;;;;;;;0.88;0.20;;;;;;;19.49;32.96;100137.66;5006842;28;20049;-70
2021/05/10 09:06:15;;;;;;;4.65;0.30;;;;;;;19.40;33.19;100138.50;4991495;28;20113;-70
2021/05/10 09:08:43;;;;;;;3.20;0.20;;;;;;;18.71;34.41;100141.88;5005766;28;20042;-70
2021/05/10 09:11:09;;;;;;;0.35;0.25;;;;;;;18.34;34.87;100149.44;5007334;28;20038;-70
2021/05/10 09:13:41;;;;;;;1.08;0.20;;;;;;;19.37;34.13;100156.47;5008103;28;20034;-70
2021/05/10 09:16:08;;;;;;;1.23;0.43;;;;;;;19.37;33.95;100154.69;5007390;28;20038;-70
2021/05/10 09:18:34;;;;;;;2.25;0.20;;;;;;;18.65;35.03;100161.78;5003119;28;20172;-70
2021/05/10 09:21:17;;;;;;;1.58;0.85;;;;;;;18.41;35.56;100171.78;5021974;28;20044;-70
2021/05/10 09:23:42;;;;;;;2.75;0.10;;;;;;;18.60;35.41;100171.06;5006363;28;20134;-70
2021/05/10 09:26:11;;;;;;;1.77;0.10;;;;;;;18.75;35.06;100153.88;5006768;28;20116;-70
2021/05/10 09:28:45;;;;;;;0.65;0.10;;;;;;;20.01;33.28;100155.16;5003450;28;20301;-70
2021/05/10 09:31:12;;;;;;;0.50;0.20;;;;;;;21.48;31.79;100164.38;5005771;28;20404;-70
2021/05/10 09:33:45;;;;;;;0.95;0.10;;;;;;;22.34;30.42;100156.69;5004786;28;20033;-70
2021/05/10 09:36:30;;;;;;;1.67;0.10;;;;;;;22.12;30.56;100166.00;5004398;28;20092;-70
2021/05/10 09:38:55;;;;;;;0.30;0.10;;;;;;;21.69;30.40;100167.59;5005528;28;20030;-70
2021/05/10 09:41:21;;;;;;;2.40;0.10;;;;;;;20.44;32.29;100164.47;5005661;28;20093;-70
2021/05/10 09:43:58;;;;;;;2.72;0.20;;;;;;;20.60;33.53;100178.00;5005784;28;20237;-70
2021/05/10 09:46:37;;;;;;;1.50;0.20;;;;;;;20.18;33.62;100182.81;5003641;28;20046;-70
2021/05/10 09:49:03;;;;;;;0.30;0.20;;;;;;;20.25;34.19;100192.72;5005788;28;20054;-69
2021/05/10 09:51:28;;;;;;;1.65;0.10;;;;;;;18.73;35.72;100187.56;5005782;28;20080;-70
2021/05/10 09:53:56;;;;;;;1.55;0.20;;;;;;;18.35;36.55;100204.88;5008343;28;20121;-69
2021/05/10 09:58:54;;;;;;;1.10;0.22;;;;;;;18.40;37.46;100217.72;5008055;28;20040;-69
2021/05/10 10:01:21;;;;;;;0.50;0.10;;;;;;;19.39;36.07;100200.41;5008798;28;20037;-69
2021/05/10 10:03:51;;;;;;;3.20;0.20;;;;;;;19.20;36.76;100214.44;5004800;28;20069;-69
2021/05/10 10:06:21;;;;;;;2.47;0.10;;;;;;;21.42;33.11;100226.09;5020089;28;20120;-70
2021/05/10 10:08:49;;;;;;;2.10;0.30;;;;;;;20.47;34.59;100239.34;5005538;28;20121;-70
2021/05/10 10:11:20;;;;;;;0.77;0.10;;;;;;;20.49;34.67;100248.03;5004869;28;20132;-70
2021/05/10 10:13:46;;;;;;;1.40;0.10;;;;;;;19.34;35.97;100260.91;5004723;28;20038;-70
2021/05/10 10:16:14;;;;;;;1.40;0.10;;;;;;;19.46;36.03;100264.31;5005846;28;20037;-70
2021/05/10 10:18:41;;;;;;;4.63;0.20;;;;;;;19.51;35.58;100256.78;5004424;28;20033;-70
2021/05/10 10:21:09;;;;;;;5.13;0.13;;;;;;;19.20;36.49;100266.56;5005303;28;20044;-70
2021/05/10 10:23:36;;;;;;;0.93;0.10;;;;;;;19.95;35.19;100260.00;5004082;28;20141;-70
2021/05/10 10:26:06;;;;;;;3.47;0.20;;;;;;;20.30;35.07;100258.66;5003602;28;20050;-70
2021/05/10 10:28:33;;;;;;;0.32;0.10;;;;;;;21.51;33.72;100249.16;5018466;28;20038;-71
2021/05/10 10:31:13;;;;;;;4.10;0.20;;;;;;;21.93;32.44;100257.41;5004021;28;20192;-70
2021/05/10 10:33:45;;;;;;;2.05;0.35;;;;;;;20.15;34.72;100286.53;5006458;28;20041;-69
2021/05/10 10:36:22;;;;;;;4.10;0.20;;;;;;;19.21;36.79;100308.84;5005738;28;20137;-69
2021/05/10 10:39:09;;;;;;;0.65;0.20;;;;;;;19.29;36.78;100311.66;5005337;28;20060;-70
2021/05/10 10:41:56;;;;;;;0.73;0.10;;;;;;;17.32;40.12;100326.75;5020895;28;20107;-70
2021/05/10 10:44:36;;;;;;;1.67;0.10;;;;;;;17.77;39.66;100315.38;4984325;28;20085;-70
2021/05/10 10:47:03;;;;;;;0.70;0.15;;;;;;;18.36;38.91;100325.59;5003387;28;20029;-70
2021/05/10 10:49:30;;;;;;;1.77;0.10;;;;;;;19.27;36.85;100312.75;5001659;28;20038;-70
2021/05/10 10:51:56;;;;;;;7.55;0.55;;;;;;;19.04;37.38;100301.50;5016207;28;20029;-70
2021/05/10 10:54:24;;;;;;;3.75;0.32;;;;;;;19.20;37.72;100311.59;5003046;28;20033;-70
2021/05/10 10:56:59;;;;;;;0.47;0.20;;;;;;;20.11;36.47;100313.34;5002421;28;20103;-69
2021/05/10 10:59:32;;;;;;;0.50;0.10;;;;;;;20.47;35.91;100332.25;5002224;28;20045;-70
2021/05/10 11:02:14;;;;;;;0.65;0.40;;;;;;;21.88;33.25;100336.03;5016101;28;20377;-69
2021/05/10 11:04:40;;;;;;;1.90;0.10;;;;;;;20.53;33.44;100334.38;4986817;28;20049;-70
2021/05/10 11:07:06;;;;;;;0.57;0.22;;;;;;;20.11;34.02;100334.56;5016614;28;20499;-70
2021/05/10 11:09:51;;;;;;;1.48;0.20;;;;;;;20.66;33.98;100339.41;5000904;28;20724;-70
2021/05/10 11:12:48;;;;;;;1.85;0.10;;;;;;;19.53;34.58;100362.69;5015383;28;20044;-70
2021/05/10 11:15:35;;;;;;;1.02;0.13;;;;;;;20.01;34.40;100383.25;5001554;28;20069;-70
2021/05/10 11:18:05;;;;;;;0.43;0.10;;;;;;;18.95;35.07;100355.22;5002240;28;20045;-70
2021/05/10 11:21:00;;;;;;;0.50;0.20;;;;;;;19.87;33.87;100385.31;5002213;28;20587;-69
2021/05/10 11:23:26;;;;;;;1.08;0.30;;;;;;;20.30;32.68;100378.88;4987185;28;20046;-70
2021/05/10 11:25:54;;;;;;;1.48;0.10;;;;;;;19.57;34.21;100383.53;4984936;28;20018;-69
2021/05/10 11:28:29;;;;;;;3.92;0.20;;;;;;;20.35;33.80;100381.16;5017820;28;20030;-70
2021/05/10 11:30:57;;;;;;;0.95;0.20;;;;;;;20.57;33.89;100380.03;5002097;28;20038;-70
2021/05/10 11:33:51;;;;;;;0.63;0.10;;;;;;;19.61;34.61;100371.66;5000467;28;20056;-70
2021/05/10 11:36:24;;;;;;;0.60;0.20;;;;;;;18.82;36.52;100387.97;5018984;28;20038;-70